Mackay, Texas
Current Conditions -  °F | °C
As of 10:35 AM on Tuesday 27 Jan 2015 (Local Time) from KARM Reporting Station
Clear Clear  
Wind Chill: 66°   Ceiling: Unl
Heat Index: 66°   Visibility: 10mi
Dew Point: 46°   Wind: 10mph
Humidity: 48%   Direction: 250°WSW
Pressure: 30.2"   Gusts: NA
Location:  29.2926°N, 96.034°W
Report Text: KARM 271635Z AUTO 25009KT 10SM CLR 19/08 A3020 RMK AO2 T01880076
Loading
Personal Weather Stations






























Interactive Weather Map New forecast layout! Learn more

10-Day Weather Forecast

Advertisements
Track Severe Weather on mobile